createdAt,value
2022-08-05T00:02:22.449Z,21.30
2022-08-05T00:04:55.260Z,21.20
2022-08-05T00:07:59.068Z,21.10
2022-08-05T00:10:12.789Z,21.10
2022-08-05T00:12:56.520Z,21.20
2022-08-05T00:15:55.350Z,21.20
2022-08-05T00:18:21.359Z,21.10
2022-08-05T00:20:49.187Z,21.00
2022-08-05T00:23:15.995Z,21.00
2022-08-05T00:25:45.693Z,20.90
2022-08-05T00:28:13.552Z,20.90
2022-08-05T00:30:41.249Z,20.80
2022-08-05T00:33:15.520Z,20.90
2022-08-05T00:36:15.989Z,20.80
2022-08-05T00:38:45.236Z,20.70
2022-08-05T00:41:12.959Z,20.70
2022-08-05T00:43:49.668Z,20.70
2022-08-05T00:46:16.656Z,20.70
2022-08-05T00:48:51.477Z,20.70
2022-08-05T00:51:50.318Z,20.60
2022-08-05T00:54:06.793Z,20.50
2022-08-05T00:56:33.602Z,20.50
2022-08-05T00:59:02.000Z,20.50
2022-08-05T01:01:48.226Z,20.20
2022-08-05T01:04:15.963Z,19.80
2022-08-05T01:06:48.886Z,19.50
2022-08-05T01:09:19.955Z,19.40
2022-08-05T01:11:51.723Z,19.30
2022-08-05T01:14:28.251Z,19.20
2022-08-05T01:17:13.758Z,19.20
2022-08-05T01:20:01.118Z,19.20
2022-08-05T01:22:57.369Z,19.30
2022-08-05T01:25:53.825Z,19.20
2022-08-05T01:28:46.793Z,19.20
2022-08-05T01:31:42.680Z,19.20
2022-08-05T01:34:21.008Z,19.20
2022-08-05T01:36:53.771Z,19.20
2022-08-05T01:39:46.288Z,19.20
2022-08-05T01:42:15.334Z,19.10
2022-08-05T01:44:44.189Z,19.10
2022-08-05T01:47:15.267Z,19.10
2022-08-05T01:50:01.585Z,19.10
2022-08-05T01:52:31.621Z,19.20
2022-08-05T01:55:04.422Z,19.20
2022-08-05T01:58:09.772Z,19.10
2022-08-05T02:00:30.314Z,19.10
2022-08-05T02:03:24.368Z,19.20
2022-08-05T02:05:58.016Z,19.10
2022-08-05T02:08:30.772Z,19.10
2022-08-05T02:11:11.808Z,19.10
2022-08-05T02:13:53.518Z,19.10
2022-08-05T02:16:52.818Z,19.10
2022-08-05T02:19:34.575Z,19.10
2022-08-05T02:22:38.338Z,19.10
2022-08-05T02:25:08.926Z,19.10
2022-08-05T02:27:59.866Z,19.20
2022-08-05T02:30:51.636Z,19.20
2022-08-05T02:33:24.361Z,19.30
2022-08-05T02:36:05.275Z,19.20
2022-08-05T02:38:35.495Z,19.20
2022-08-05T02:41:14.745Z,19.20
2022-08-05T02:44:06.561Z,19.10
2022-08-05T02:46:36.530Z,19.10
2022-08-05T02:49:21.874Z,19.10
2022-08-05T02:52:03.394Z,19.20
2022-08-05T02:54:35.702Z,19.10
2022-08-05T02:57:09.735Z,19.00
2022-08-05T02:59:54.339Z,19.00
2022-08-05T03:02:27.566Z,19.00
2022-08-05T03:04:57.474Z,18.90
2022-08-05T03:08:00.735Z,18.80
2022-08-05T03:10:16.141Z,18.70
2022-08-05T03:12:52.418Z,18.60
2022-08-05T03:15:21.265Z,18.60
2022-08-05T03:17:54.121Z,18.60
2022-08-05T03:20:23.694Z,18.60
2022-08-05T03:22:52.250Z,18.50
2022-08-05T03:25:33.302Z,18.50
2022-08-05T03:28:08.857Z,18.50
2022-08-05T03:30:38.357Z,18.50
2022-08-05T03:33:08.694Z,18.50
2022-08-05T03:35:41.692Z,18.40
2022-08-05T03:38:11.591Z,18.40
2022-08-05T03:40:48.472Z,18.50
2022-08-05T03:44:08.432Z,18.50
2022-08-05T03:46:04.773Z,18.50
2022-08-05T03:48:35.362Z,18.40
2022-08-05T03:52:35.193Z,18.30
2022-08-05T03:55:50.835Z,18.40
2022-08-05T03:56:49.897Z,18.40
2022-08-05T03:59:26.103Z,18.30
2022-08-05T04:01:59.060Z,18.30
2022-08-05T04:04:28.113Z,18.40
2022-08-05T04:06:56.070Z,18.40
2022-08-05T04:09:26.605Z,18.30
2022-08-05T04:11:56.491Z,18.30
2022-08-05T04:14:30.586Z,18.30
2022-08-05T04:16:59.966Z,18.30
2022-08-05T04:19:28.821Z,18.40
2022-08-05T04:22:08.467Z,18.40
2022-08-05T04:24:52.889Z,18.40
2022-08-05T04:27:33.325Z,18.40
2022-08-05T04:30:08.968Z,18.40
2022-08-05T04:32:36.470Z,18.40
2022-08-05T04:35:04.974Z,18.30
2022-08-05T04:38:01.030Z,18.30
2022-08-05T04:40:20.091Z,18.40
2022-08-05T04:42:47.004Z,18.40
2022-08-05T04:45:22.916Z,18.40
2022-08-05T04:48:18.647Z,18.40
2022-08-05T04:51:01.864Z,18.40
2022-08-05T04:53:33.699Z,18.00
2022-08-05T04:56:33.743Z,18.30
2022-08-05T04:58:49.761Z,18.30
2022-08-05T05:01:33.762Z,18.40
2022-08-05T05:04:04.696Z,18.30
2022-08-05T05:06:39.350Z,18.40
2022-08-05T05:09:14.301Z,18.40
2022-08-05T05:11:54.079Z,18.40
2022-08-05T05:14:28.190Z,18.40
2022-08-05T05:17:07.471Z,18.40
2022-08-05T05:19:39.583Z,18.30
2022-08-05T05:22:24.514Z,18.30
2022-08-05T05:24:58.868Z,18.10
2022-08-05T05:27:44.889Z,18.20
2022-08-05T05:30:29.881Z,18.20
2022-08-05T05:33:00.907Z,18.20
2022-08-05T05:35:34.303Z,18.20
2022-08-05T05:38:08.931Z,18.30
2022-08-05T05:40:36.590Z,18.30
2022-08-05T05:43:03.919Z,18.40
2022-08-05T05:45:35.896Z,18.40
2022-08-05T05:48:05.470Z,18.50
2022-08-05T05:50:44.042Z,18.40
2022-08-05T05:53:21.539Z,18.40
2022-08-05T05:55:52.294Z,18.30
2022-08-05T05:58:30.157Z,18.50
2022-08-05T06:01:02.566Z,18.30
2022-08-05T06:04:00.903Z,18.40
2022-08-05T06:06:31.176Z,18.60
2022-08-05T06:09:00.135Z,18.70
2022-08-05T06:11:28.976Z,18.60
2022-08-05T06:13:56.791Z,18.60
2022-08-05T06:16:29.756Z,18.60
2022-08-05T06:19:01.256Z,18.50
2022-08-05T06:21:36.770Z,18.40
2022-08-05T06:24:07.680Z,18.40
2022-08-05T06:26:38.547Z,18.50
2022-08-05T06:29:06.964Z,18.40
2022-08-05T06:31:52.744Z,18.40
2022-08-05T06:34:20.465Z,18.40
2022-08-05T06:36:57.028Z,18.50
2022-08-05T06:39:27.282Z,18.40
2022-08-05T06:41:58.927Z,18.40
2022-08-05T06:44:26.109Z,18.40
2022-08-05T06:46:54.417Z,18.30
2022-08-05T06:50:00.657Z,18.40
2022-08-05T06:52:37.088Z,18.30
2022-08-05T06:54:55.357Z,18.20
2022-08-05T06:58:03.108Z,18.20
2022-08-05T07:00:09.954Z,18.20
2022-08-05T07:02:43.594Z,18.20
2022-08-05T07:05:18.539Z,18.00
2022-08-05T07:07:49.036Z,18.10
2022-08-05T07:10:16.405Z,18.10
2022-08-05T07:13:01.938Z,18.00
2022-08-05T07:16:01.872Z,18.20
2022-08-05T07:18:32.527Z,18.10
2022-08-05T07:21:04.747Z,18.20
2022-08-05T07:23:32.762Z,18.20
2022-08-05T07:25:59.677Z,18.10
2022-08-05T07:28:27.007Z,18.00
2022-08-05T07:30:55.204Z,18.10
2022-08-05T07:33:36.937Z,18.00
2022-08-05T07:36:20.349Z,18.00
2022-08-05T07:38:49.159Z,18.10
2022-08-05T07:42:13.795Z,18.10
2022-08-05T07:44:18.718Z,18.00
2022-08-05T07:46:49.607Z,18.10
2022-08-05T07:49:18.153Z,18.10
2022-08-05T07:51:53.120Z,18.10
2022-08-05T07:54:31.766Z,18.00
2022-08-05T07:57:41.973Z,18.00
2022-08-05T07:59:53.796Z,18.00
2022-08-05T08:02:26.705Z,17.90
2022-08-05T08:04:58.738Z,17.90
2022-08-05T08:07:25.792Z,18.00
2022-08-05T08:09:55.434Z,18.00
2022-08-05T08:12:36.994Z,17.90
2022-08-05T08:15:09.784Z,18.00
2022-08-05T08:17:46.075Z,18.10
2022-08-05T08:20:42.704Z,18.00
2022-08-05T08:24:00.468Z,18.00
2022-08-05T08:25:59.795Z,18.10
2022-08-05T08:28:36.849Z,18.20
2022-08-05T08:31:17.616Z,18.10
2022-08-05T08:33:45.151Z,18.00
2022-08-05T08:36:29.387Z,18.00
2022-08-05T08:38:59.093Z,17.90
2022-08-05T08:41:51.899Z,18.00
2022-08-05T08:45:18.981Z,18.10
2022-08-05T08:47:46.879Z,17.90
2022-08-05T08:50:13.042Z,17.80
2022-08-05T08:52:56.865Z,17.80
2022-08-05T08:55:32.185Z,17.70
2022-08-05T08:58:12.883Z,17.80
2022-08-05T09:00:41.837Z,17.80
2022-08-05T09:03:11.254Z,17.90
2022-08-05T09:06:08.856Z,17.70
2022-08-05T09:08:27.516Z,17.70
2022-08-05T09:10:58.314Z,18.90
2022-08-05T09:13:25.614Z,18.80
2022-08-05T09:15:59.571Z,18.70
2022-08-05T09:18:26.485Z,18.60
2022-08-05T09:20:53.285Z,18.30
2022-08-05T09:23:21.886Z,18.30
2022-08-05T09:26:20.696Z,18.40
2022-08-05T09:28:49.368Z,18.30
2022-08-05T09:32:38.779Z,18.20
2022-08-05T09:34:06.395Z,18.30
2022-08-05T09:36:54.570Z,17.90
2022-08-05T09:39:39.262Z,17.90
2022-08-05T09:42:13.563Z,17.90
2022-08-05T09:44:52.382Z,17.80
2022-08-05T09:47:28.649Z,17.90
2022-08-05T09:50:13.636Z,18.00
2022-08-05T09:52:45.813Z,18.10
2022-08-05T09:55:57.053Z,18.10
2022-08-05T09:58:00.399Z,18.10
2022-08-05T10:00:30.621Z,18.20
2022-08-05T10:02:59.041Z,18.20
2022-08-05T10:05:28.487Z,18.10
2022-08-05T10:08:11.186Z,18.10
2022-08-05T10:10:50.242Z,18.00
2022-08-05T10:13:31.836Z,18.00
2022-08-05T10:16:41.888Z,17.70
2022-08-05T10:19:23.673Z,17.70
2022-08-05T10:21:59.292Z,17.70
2022-08-05T10:24:27.322Z,17.70
2022-08-05T10:27:00.238Z,17.80
2022-08-05T10:30:41.540Z,17.70
2022-08-05T10:32:54.286Z,17.80
2022-08-05T10:35:04.225Z,17.90
2022-08-05T10:37:41.348Z,17.90
2022-08-05T10:40:28.340Z,18.00
2022-08-05T10:43:02.663Z,18.10
2022-08-05T10:45:42.147Z,18.00
2022-08-05T10:48:57.356Z,17.90
2022-08-05T10:51:29.302Z,17.80
2022-08-05T10:54:01.789Z,17.80
2022-08-05T10:56:36.423Z,17.80
2022-08-05T10:59:11.447Z,17.70
2022-08-05T11:01:54.072Z,17.80
2022-08-05T11:04:30.970Z,18.00
2022-08-05T11:07:00.514Z,18.00
2022-08-05T11:09:45.355Z,17.90
2022-08-05T11:12:41.249Z,18.00
2022-08-05T11:15:19.227Z,18.10
2022-08-05T11:18:00.484Z,18.00
2022-08-05T11:20:44.404Z,18.20
2022-08-05T11:23:33.387Z,18.20
2022-08-05T11:26:31.849Z,18.20
2022-08-05T11:29:12.890Z,18.20
2022-08-05T11:31:57.877Z,18.40
2022-08-05T11:34:51.764Z,18.40
2022-08-05T11:38:28.304Z,18.60
2022-08-05T11:41:12.829Z,18.50
2022-08-05T11:44:12.687Z,18.70
2022-08-05T11:47:11.000Z,18.60
2022-08-05T11:49:39.861Z,18.80
2022-08-05T11:52:11.720Z,18.80
2022-08-05T11:54:40.375Z,18.60
2022-08-05T11:57:25.075Z,18.50
2022-08-05T11:59:55.818Z,18.50
2022-08-05T12:02:33.017Z,18.60
2022-08-05T12:05:06.816Z,18.60
2022-08-05T12:08:08.073Z,18.80
2022-08-05T12:10:43.128Z,18.80
2022-08-05T12:13:28.118Z,19.00
2022-08-05T12:16:14.435Z,19.50
2022-08-05T12:18:42.795Z,19.60
2022-08-05T12:21:26.813Z,19.70
2022-08-05T12:24:08.439Z,19.90
2022-08-05T12:27:09.447Z,19.90
2022-08-05T12:29:38.626Z,19.90
2022-08-05T12:32:07.617Z,19.70
2022-08-05T12:34:37.839Z,19.80
2022-08-05T12:37:16.975Z,19.60
2022-08-05T12:39:48.515Z,19.40
2022-08-05T12:42:20.534Z,19.60
2022-08-05T12:44:47.996Z,19.50
2022-08-05T12:47:26.924Z,19.60
2022-08-05T12:50:05.335Z,19.70
2022-08-05T12:52:39.598Z,20.00
2022-08-05T12:55:25.594Z,19.90
2022-08-05T12:58:38.717Z,20.00
2022-08-05T13:02:03.204Z,20.30
2022-08-05T13:03:41.413Z,20.40
2022-08-05T13:06:13.234Z,20.50
2022-08-05T13:08:40.385Z,20.50
2022-08-05T13:11:07.956Z,20.50
2022-08-05T13:14:06.217Z,20.40
2022-08-05T13:16:28.621Z,20.40
2022-08-05T13:18:58.435Z,20.80
2022-08-05T13:21:28.219Z,21.00
2022-08-05T13:24:05.214Z,21.10
2022-08-05T13:26:32.348Z,20.90
2022-08-05T13:29:00.631Z,20.90
2022-08-05T13:32:03.214Z,21.10
2022-08-05T13:34:22.895Z,20.70
2022-08-05T13:36:53.102Z,21.50
2022-08-05T13:39:24.376Z,21.50
2022-08-05T13:42:07.289Z,21.50
2022-08-05T13:44:34.753Z,21.40
2022-08-05T13:47:08.508Z,21.70
2022-08-05T13:49:35.884Z,21.50
2022-08-05T13:52:29.106Z,21.40
2022-08-05T13:54:57.482Z,21.50
2022-08-05T13:57:51.597Z,21.60
2022-08-05T14:00:14.829Z,21.90
2022-08-05T14:02:42.953Z,21.90
2022-08-05T14:05:15.235Z,21.70
2022-08-05T14:07:59.794Z,21.50
2022-08-05T14:10:32.997Z,21.40
2022-08-05T14:12:59.937Z,21.30
2022-08-05T14:16:07.450Z,21.30
2022-08-05T14:18:18.116Z,21.20
2022-08-05T14:20:48.917Z,21.20
2022-08-05T14:23:25.831Z,21.20
2022-08-05T14:25:58.941Z,21.30
2022-08-05T14:28:30.320Z,21.70
2022-08-05T14:30:58.446Z,21.70
2022-08-05T14:33:25.380Z,21.80
2022-08-05T14:35:54.212Z,21.60
2022-08-05T14:38:33.333Z,21.50
2022-08-05T14:41:06.065Z,21.30
2022-08-05T14:43:57.816Z,21.20
2022-08-05T14:46:28.270Z,21.20
2022-08-05T14:48:57.966Z,21.60
2022-08-05T14:51:30.697Z,21.30
2022-08-05T14:54:06.754Z,21.50
2022-08-05T14:56:46.968Z,21.20
2022-08-05T14:59:14.156Z,21.10
2022-08-05T15:01:48.302Z,20.90
2022-08-05T15:04:17.174Z,20.70
2022-08-05T15:06:49.129Z,20.70
2022-08-05T15:09:54.055Z,20.90
2022-08-05T15:12:08.930Z,21.10
2022-08-05T15:14:48.365Z,21.50
2022-08-05T15:17:46.721Z,21.50
2022-08-05T15:20:06.330Z,21.80
2022-08-05T15:22:36.953Z,21.80
2022-08-05T15:25:11.507Z,21.90
2022-08-05T15:27:42.863Z,22.00
2022-08-05T15:30:18.651Z,22.10
2022-08-05T15:32:45.438Z,21.90
2022-08-05T15:35:12.860Z,21.90
2022-08-05T15:38:34.763Z,21.80
2022-08-05T15:41:00.214Z,22.00
2022-08-05T15:43:20.553Z,21.80
2022-08-05T15:46:00.649Z,21.70
2022-08-05T15:48:29.877Z,21.50
2022-08-05T15:50:57.413Z,21.20
2022-08-05T15:53:26.595Z,21.40
2022-08-05T15:56:14.170Z,21.40
2022-08-05T15:58:41.305Z,21.50
2022-08-05T16:01:17.334Z,21.40
2022-08-05T16:03:48.295Z,21.50
2022-08-05T16:06:16.077Z,21.50
2022-08-05T16:08:47.888Z,21.60
2022-08-05T16:11:18.223Z,21.70
2022-08-05T16:13:48.502Z,21.80
2022-08-05T16:16:25.241Z,21.90
2022-08-05T16:18:52.982Z,22.10
2022-08-05T16:22:00.004Z,22.20
2022-08-05T16:24:39.500Z,22.30
2022-08-05T16:26:58.070Z,22.20
2022-08-05T16:29:26.600Z,21.90
2022-08-05T16:31:56.309Z,22.10
2022-08-05T16:34:25.077Z,22.00
2022-08-05T16:36:53.911Z,22.00
2022-08-05T16:39:21.247Z,21.80
2022-08-05T16:42:14.625Z,21.80
2022-08-05T16:44:37.864Z,21.80
2022-08-05T16:47:04.893Z,21.90
2022-08-05T16:49:31.859Z,21.90
2022-08-05T16:51:58.658Z,21.70
2022-08-05T16:54:31.860Z,21.60
2022-08-05T16:57:00.177Z,21.50
2022-08-05T16:59:30.620Z,21.40
2022-08-05T17:01:57.758Z,21.50
2022-08-05T17:04:27.806Z,21.40
2022-08-05T17:07:00.110Z,21.40
2022-08-05T17:09:57.855Z,21.10
2022-08-05T17:12:18.307Z,20.90
2022-08-05T17:14:49.749Z,20.80
2022-08-05T17:17:16.734Z,20.90
2022-08-05T17:19:46.609Z,20.80
2022-08-05T17:22:24.986Z,20.70
2022-08-05T17:24:58.304Z,20.50
2022-08-05T17:27:33.704Z,20.40
2022-08-05T17:30:02.705Z,20.50
2022-08-05T17:32:30.350Z,20.50
2022-08-05T17:35:00.846Z,20.50
2022-08-05T17:37:41.910Z,20.50
2022-08-05T17:40:15.211Z,20.50
2022-08-05T17:42:51.282Z,20.50
2022-08-05T17:45:22.195Z,20.40
2022-08-05T17:47:55.495Z,20.40
2022-08-05T17:50:30.554Z,20.30
2022-08-05T17:53:04.746Z,20.30
2022-08-05T17:55:34.477Z,20.30
2022-08-05T17:58:11.089Z,20.20
2022-08-05T18:00:44.925Z,20.10
2022-08-05T18:03:55.826Z,20.00
2022-08-05T18:06:11.820Z,19.90
2022-08-05T18:08:45.024Z,19.80
2022-08-05T18:11:24.516Z,19.80
2022-08-05T18:14:07.150Z,19.70
2022-08-05T18:16:46.964Z,19.60
2022-08-05T18:19:18.688Z,19.50
2022-08-05T18:22:07.154Z,19.50
2022-08-05T18:24:34.986Z,19.50
2022-08-05T18:27:01.850Z,19.40
2022-08-05T18:29:40.779Z,19.30
2022-08-05T18:32:12.951Z,19.20
2022-08-05T18:34:41.506Z,19.10
2022-08-05T18:37:12.143Z,19.00
2022-08-05T18:40:29.402Z,18.80
2022-08-05T18:42:27.064Z,18.80
2022-08-05T18:44:56.298Z,18.70
2022-08-05T18:47:26.882Z,18.60
2022-08-05T18:50:12.794Z,18.60
2022-08-05T18:52:50.596Z,18.60
2022-08-05T18:55:19.018Z,18.50
2022-08-05T18:57:53.401Z,18.40
2022-08-05T19:00:29.220Z,18.30
2022-08-05T19:02:57.530Z,18.30
2022-08-05T19:06:11.319Z,18.10
2022-08-05T19:08:17.329Z,18.00
2022-08-05T19:10:45.860Z,17.90
2022-08-05T19:13:16.058Z,17.90
2022-08-05T19:15:59.192Z,17.80
2022-08-05T19:18:30.225Z,17.80
2022-08-05T19:20:59.530Z,17.70
2022-08-05T19:24:07.684Z,17.60
2022-08-05T19:26:14.578Z,17.50
2022-08-05T19:28:44.549Z,17.40
2022-08-05T19:31:17.682Z,17.30
2022-08-05T19:33:48.550Z,17.30
2022-08-05T19:36:25.352Z,17.10
2022-08-05T19:38:54.630Z,17.10
2022-08-05T19:41:34.660Z,17.20
2022-08-05T19:44:13.507Z,17.10
2022-08-05T19:46:41.477Z,17.20
2022-08-05T19:49:16.502Z,17.20
2022-08-05T19:52:06.181Z,17.10
2022-08-05T19:54:32.899Z,17.00
2022-08-05T19:57:02.658Z,16.90
2022-08-05T20:00:00.534Z,17.00
2022-08-05T20:02:21.313Z,16.90
2022-08-05T20:04:50.227Z,16.80
2022-08-05T20:07:47.362Z,16.70
2022-08-05T20:10:11.698Z,16.70
2022-08-05T20:12:47.532Z,16.70
2022-08-05T20:15:47.822Z,16.60
2022-08-05T20:18:10.616Z,16.70
2022-08-05T20:20:55.084Z,16.60
2022-08-05T20:23:23.699Z,16.60
2022-08-05T20:26:08.903Z,16.60
2022-08-05T20:28:44.308Z,16.60
2022-08-05T20:31:11.653Z,16.60
2022-08-05T20:33:38.471Z,16.60
2022-08-05T20:36:11.063Z,16.60
2022-08-05T20:38:40.851Z,16.70
2022-08-05T20:41:24.139Z,16.70
2022-08-05T20:43:58.729Z,16.70
2022-08-05T20:46:27.479Z,16.70
2022-08-05T20:48:54.706Z,16.60
2022-08-05T20:51:21.805Z,16.60
2022-08-05T20:53:55.274Z,16.60
2022-08-05T20:56:29.726Z,16.60
2022-08-05T20:59:00.075Z,16.50
2022-08-05T21:01:39.033Z,16.50
2022-08-05T21:04:10.713Z,16.50
2022-08-05T21:06:38.377Z,16.40
2022-08-05T21:09:12.328Z,16.30
2022-08-05T21:12:09.862Z,16.30
2022-08-05T21:14:29.126Z,16.30
2022-08-05T21:17:02.289Z,16.30
2022-08-05T21:19:46.550Z,16.20
2022-08-05T21:22:21.794Z,16.10
2022-08-05T21:24:51.491Z,16.10
2022-08-05T21:27:27.169Z,16.00
2022-08-05T21:29:58.180Z,15.90
2022-08-05T21:32:29.474Z,15.90
2022-08-05T21:35:17.346Z,15.90
2022-08-05T21:37:47.301Z,15.80
2022-08-05T21:40:19.627Z,15.60
2022-08-05T21:42:47.292Z,15.60
2022-08-05T21:45:24.108Z,15.50
2022-08-05T21:47:56.018Z,15.40
2022-08-05T21:50:25.879Z,15.20
2022-08-05T21:52:53.688Z,15.20
2022-08-05T21:56:00.967Z,15.30
2022-08-05T21:58:12.876Z,15.20
2022-08-05T22:00:40.087Z,15.10
2022-08-05T22:03:09.753Z,15.00
2022-08-05T22:05:49.070Z,14.90
2022-08-05T22:08:22.367Z,14.80
2022-08-05T22:10:51.835Z,14.90
2022-08-05T22:14:19.826Z,14.80
2022-08-05T22:16:32.355Z,14.80
2022-08-05T22:18:54.024Z,14.70
2022-08-05T22:21:25.852Z,14.70
2022-08-05T22:24:13.183Z,14.60
2022-08-05T22:27:17.638Z,14.60
2022-08-05T22:29:44.630Z,14.50
2022-08-05T22:32:12.951Z,14.50
2022-08-05T22:34:44.455Z,14.50
2022-08-05T22:37:12.906Z,14.50
2022-08-05T22:39:39.868Z,14.40
2022-08-05T22:42:11.474Z,14.40
2022-08-05T22:44:41.075Z,14.30
2022-08-05T22:47:13.991Z,14.30
2022-08-05T22:50:20.707Z,14.30
2022-08-05T22:52:44.054Z,14.20
2022-08-05T22:55:18.232Z,14.20
2022-08-05T22:57:46.770Z,14.20
2022-08-05T23:00:18.475Z,14.20
2022-08-05T23:02:48.187Z,14.40
2022-08-05T23:05:16.051Z,14.50
2022-08-05T23:07:44.975Z,14.50
2022-08-05T23:10:16.294Z,14.50
2022-08-05T23:12:47.743Z,14.50
2022-08-05T23:15:19.111Z,14.50
2022-08-05T23:18:01.106Z,14.40
2022-08-05T23:20:28.891Z,14.40
2022-08-05T23:22:56.540Z,14.30
2022-08-05T23:25:52.004Z,14.30
2022-08-05T23:28:12.494Z,14.30
2022-08-05T23:30:43.761Z,14.20
2022-08-05T23:33:25.858Z,14.20
2022-08-05T23:35:55.174Z,14.20
2022-08-05T23:38:24.160Z,14.10
2022-08-05T23:40:52.576Z,14.10
2022-08-05T23:43:25.191Z,14.10
2022-08-05T23:46:20.369Z,14.10
2022-08-05T23:48:59.893Z,14.10
2022-08-05T23:51:54.367Z,14.00
2022-08-05T23:54:33.938Z,14.00
2022-08-05T23:57:04.980Z,14.00
